Aviation Digital Data Service (ADDS)

Output produced by METARs form (0758 UTC 11 December 2016)
found at http://aviationweather.gov/adds/metars/
 
KOAJ 110531Z 1106/1206 00000KT P6SM SKC 
     FM111600 VRB05KT P6SM SCT250 
     FM112000 11006KT P6SM SCT025 BKN050 AMD LTD TO CLD VIS AND WIND